Wetterdaten: Woche 10.07.06 - 16.07.06 (KW28)
Datum Zeit Temperatur Luftfeuchte Luftdruck Niederschlag Windrichtung Wind
10.07.2006 00:00 17,2 C 82 % 1023 hPa 0,0 l/m N 0,0 km/h (0 Bft)
10.07.2006 01:00 17,2 C 83 % 1023 hPa 0,0 l/m N 0,0 km/h (0 Bft)
10.07.2006 02:00 17,1 C 86 % 1023 hPa 0,0 l/m N 0,0 km/h (0 Bft)
10.07.2006 03:00 16,9 C 89 % 1024 hPa 0,0 l/m S-SW 0,3 km/h (0 Bft)
10.07.2006 04:00 15,8 C 93 % 1024 hPa 0,0 l/m N 0,0 km/h (0 Bft)
10.07.2006 05:00 15,0 C 96 % 1025 hPa 0,0 l/m N 0,0 km/h (0 Bft)
10.07.2006 06:00 15,1 C 99 % 1025 hPa 0,0 l/m N 0,0 km/h (0 Bft)
10.07.2006 07:00 16,5 C 96 % 1025 hPa 0,0 l/m N 0,0 km/h (0 Bft)
10.07.2006 08:00 18,6 C 90 % 1025 hPa 0,0 l/m S-SW 5,0 km/h (1 Bft)
10.07.2006 09:00 20,9 C 76 % 1025 hPa 0,0 l/m N-NO 5,6 km/h (1 Bft)
10.07.2006 10:00 22,5 C 67 % 1025 hPa 0,0 l/m W 7,5 km/h (2 Bft)
10.07.2006 11:00 23,4 C 61 % 1025 hPa 0,0 l/m S 9,3 km/h (2 Bft)
10.07.2006 12:00 23,4 C 60 % 1025 hPa 0,0 l/m W-SW 4,8 km/h (1 Bft)
10.07.2006 13:00 24,6 C 54 % 1025 hPa 0,0 l/m NW 9,5 km/h (2 Bft)
10.07.2006 14:00 26,0 C 46 % 1025 hPa 0,0 l/m W 6,7 km/h (2 Bft)
10.07.2006 15:00 26,8 C 44 % 1024 hPa 0,0 l/m W 12,4 km/h (3 Bft)
10.07.2006 16:00 28,2 C 41 % 1024 hPa 0,0 l/m W 7,8 km/h (2 Bft)
10.07.2006 17:00 28,6 C 41 % 1023 hPa 0,0 l/m NW 11,8 km/h (2 Bft)
10.07.2006 18:00 28,7 C 39 % 1023 hPa 0,0 l/m N 6,1 km/h (2 Bft)
10.07.2006 19:00 27,7 C 41 % 1023 hPa 0,0 l/m N-NW 7,1 km/h (2 Bft)
10.07.2006 20:00 25,3 C 52 % 1023 hPa 0,0 l/m N-NO 7,2 km/h (2 Bft)
10.07.2006 21:00 22,6 C 66 % 1024 hPa 0,0 l/m N 0,6 km/h (0 Bft)
10.07.2006 22:00 20,8 C 74 % 1024 hPa 0,0 l/m NW 1,2 km/h (1 Bft)
10.07.2006 23:00 19,8 C 79 % 1024 hPa 0,0 l/m N 0,0 km/h (0 Bft)
11.07.2006 00:00 19,0 C 84 % 1024 hPa 0,0 l/m NW 3,7 km/h (1 Bft)
11.07.2006 01:00 18,5 C 87 % 1024 hPa 0,0 l/m W-NW 3,2 km/h (1 Bft)
11.07.2006 02:00 17,9 C 91 % 1024 hPa 0,0 l/m W-NW 2,0 km/h (1 Bft)
11.07.2006 03:00 17,3 C 94 % 1023 hPa 0,0 l/m W-NW 3,1 km/h (1 Bft)
11.07.2006 04:00 16,7 C 96 % 1023 hPa 0,0 l/m W-NW 6,0 km/h (2 Bft)
11.07.2006 05:00 16,3 C 98 % 1023 hPa 0,0 l/m NW 9,7 km/h (2 Bft)
11.07.2006 06:00 16,3 C 98 % 1023 hPa 0,0 l/m NW 9,6 km/h (2 Bft)
11.07.2006 07:00 17,2 C 95 % 1023 hPa 0,0 l/m N-NW 4,2 km/h (1 Bft)
11.07.2006 08:00 18,9 C 90 % 1023 hPa 0,0 l/m O-SO 1,2 km/h (1 Bft)
11.07.2006 09:00 21,1 C 80 % 1023 hPa 0,0 l/m S 8,3 km/h (2 Bft)
11.07.2006 10:00 23,6 C 68 % 1023 hPa 0,0 l/m S 11,2 km/h (2 Bft)
11.07.2006 11:00 25,9 C 56 % 1023 hPa 0,0 l/m S 10,0 km/h (2 Bft)
11.07.2006 12:00 27,8 C 46 % 1023 hPa 0,0 l/m O-SO 12,5 km/h (3 Bft)
11.07.2006 13:00 28,2 C 45 % 1022 hPa 0,0 l/m W 7,7 km/h (2 Bft)
11.07.2006 14:00 29,4 C 43 % 1022 hPa 0,0 l/m N 9,4 km/h (2 Bft)
11.07.2006 15:00 29,8 C 41 % 1022 hPa 0,0 l/m O-NO 7,8 km/h (2 Bft)
11.07.2006 16:00 29,9 C 40 % 1021 hPa 0,0 l/m W 10,5 km/h (2 Bft)
11.07.2006 17:00 30,9 C 37 % 1021 hPa 0,0 l/m S-SW 7,3 km/h (2 Bft)
11.07.2006 18:00 31,2 C 36 % 1021 hPa 0,0 l/m N 9,9 km/h (2 Bft)
11.07.2006 19:00 28,9 C 46 % 1021 hPa 0,0 l/m N-NW 2,6 km/h (1 Bft)
11.07.2006 20:00 26,1 C 61 % 1021 hPa 0,0 l/m N 0,0 km/h (0 Bft)
11.07.2006 21:00 24,6 C 66 % 1022 hPa 0,0 l/m N 0,0 km/h (0 Bft)
11.07.2006 22:00 23,6 C 69 % 1022 hPa 0,0 l/m NW 2,1 km/h (1 Bft)
11.07.2006 23:00 22,5 C 74 % 1022 hPa 0,0 l/m NW 10,1 km/h (2 Bft)
12.07.2006 00:00 21,4 C 79 % 1022 hPa 0,0 l/m W-NW 1,2 km/h (1 Bft)
12.07.2006 01:00 20,5 C 84 % 1022 hPa 0,0 l/m S 0,9 km/h (0 Bft)
12.07.2006 02:00 19,3 C 91 % 1022 hPa 0,0 l/m N 0,0 km/h (0 Bft)
12.07.2006 03:00 18,7 C 94 % 1022 hPa 0,0 l/m S-SW 0,4 km/h (0 Bft)
12.07.2006 04:00 17,8 C 96 % 1022 hPa 0,0 l/m N 0,0 km/h (0 Bft)
12.07.2006 05:00 17,2 C 98 % 1022 hPa 0,0 l/m N 0,0 km/h (0 Bft)
12.07.2006 06:00 17,1 C 100 % 1022 hPa 0,0 l/m N 0,0 km/h (0 Bft)
12.07.2006 07:00 18,0 C 99 % 1022 hPa 0,0 l/m SO 1,2 km/h (1 Bft)
12.07.2006 08:00 19,8 C 94 % 1022 hPa 0,0 l/m N 0,0 km/h (0 Bft)
12.07.2006 09:00 22,1 C 75 % 1022 hPa 0,0 l/m S 4,3 km/h (1 Bft)
12.07.2006 10:00 24,6 C 63 % 1022 hPa 0,0 l/m O-NO 5,5 km/h (1 Bft)
12.07.2006 11:00 27,1 C 54 % 1022 hPa 0,0 l/m O 10,5 km/h (2 Bft)
12.07.2006 12:00 28,8 C 47 % 1021 hPa 0,0 l/m O-NO 9,8 km/h (2 Bft)
12.07.2006 13:00 30,0 C 42 % 1021 hPa 0,0 l/m O-NO 11,8 km/h (2 Bft)
12.07.2006 14:00 29,5 C 43 % 1021 hPa 0,0 l/m W 14,1 km/h (3 Bft)
12.07.2006 15:00 23,7 C 62 % 1021 hPa 0,0 l/m W 22,3 km/h (4 Bft)
12.07.2006 16:00 22,1 C 71 % 1021 hPa 0,0 l/m NW 10,0 km/h (2 Bft)
12.07.2006 17:00 21,8 C 76 % 1021 hPa 0,0 l/m W-NW 6,6 km/h (2 Bft)
12.07.2006 18:00 22,1 C 77 % 1020 hPa 0,0 l/m N-NW 8,5 km/h (2 Bft)
12.07.2006 19:00 22,8 C 76 % 1020 hPa 0,0 l/m O-NO 2,5 km/h (1 Bft)
12.07.2006 20:00 22,6 C 79 % 1020 hPa 0,0 l/m N 0,0 km/h (0 Bft)
12.07.2006 21:00 21,5 C 85 % 1021 hPa 0,0 l/m W 0,3 km/h (0 Bft)
12.07.2006 22:00 20,2 C 91 % 1021 hPa 0,0 l/m W-NW 1,7 km/h (1 Bft)
12.07.2006 23:00 19,5 C 94 % 1021 hPa 0,0 l/m N-NO 0,3 km/h (0 Bft)
13.07.2006 00:00 18,9 C 97 % 1021 hPa 0,0 l/m N 0,0 km/h (0 Bft)
13.07.2006 01:00 18,3 C 99 % 1020 hPa 0,0 l/m N 0,0 km/h (0 Bft)
13.07.2006 02:00 17,9 C 100 % 1020 hPa 0,0 l/m N-NW 0,6 km/h (0 Bft)
13.07.2006 03:00 17,6 C 100 % 1020 hPa 0,0 l/m NW 5,7 km/h (1 Bft)
13.07.2006 04:00 17,1 C 100 % 1020 hPa 0,0 l/m N 0,0 km/h (0 Bft)
13.07.2006 05:00 16,7 C 100 % 1020 hPa 0,0 l/m NW 4,6 km/h (1 Bft)
13.07.2006 06:00 16,9 C 100 % 1020 hPa 0,0 l/m W-NW 2,1 km/h (1 Bft)
13.07.2006 07:00 18,0 C 97 % 1020 hPa 0,0 l/m N-NO 3,3 km/h (1 Bft)
13.07.2006 08:00 19,2 C 91 % 1020 hPa 0,0 l/m O 0,5 km/h (0 Bft)
13.07.2006 09:00 21,1 C 80 % 1020 hPa 0,0 l/m O 3,8 km/h (1 Bft)
13.07.2006 10:00 23,5 C 67 % 1020 hPa 0,0 l/m O-SO 7,8 km/h (2 Bft)
13.07.2006 11:00 25,7 C 58 % 1020 hPa 0,0 l/m O-SO 9,4 km/h (2 Bft)
13.07.2006 12:00 27,5 C 49 % 1020 hPa 0,0 l/m N-NO 12,1 km/h (2 Bft)
13.07.2006 13:00 28,8 C 44 % 1020 hPa 0,0 l/m NO 15,8 km/h (3 Bft)
13.07.2006 14:00 29,8 C 39 % 1020 hPa 0,0 l/m N 14,4 km/h (3 Bft)
13.07.2006 15:00 30,6 C 35 % 1019 hPa 0,0 l/m O 14,2 km/h (3 Bft)
13.07.2006 16:00 30,7 C 37 % 1019 hPa 0,0 l/m N-NO 14,2 km/h (3 Bft)
13.07.2006 17:00 30,3 C 40 % 1018 hPa 0,0 l/m N-NO 12,7 km/h (3 Bft)
13.07.2006 18:00 29,0 C 42 % 1019 hPa 0,0 l/m N-NO 10,2 km/h (2 Bft)
13.07.2006 19:00 25,8 C 57 % 1019 hPa 1,0 l/m N-NW 10,7 km/h (2 Bft)
13.07.2006 20:00 23,7 C 66 % 1019 hPa 0,0 l/m NW 10,3 km/h (2 Bft)
13.07.2006 21:00 22,1 C 71 % 1019 hPa 0,0 l/m NW 6,6 km/h (2 Bft)
13.07.2006 22:00 20,7 C 76 % 1020 hPa 0,0 l/m N 0,0 km/h (0 Bft)
13.07.2006 23:00 19,6 C 83 % 1020 hPa 0,0 l/m N 0,0 km/h (0 Bft)
14.07.2006 00:00 19,0 C 87 % 1020 hPa 0,0 l/m N 0,0 km/h (0 Bft)
14.07.2006 01:00 18,1 C 91 % 1020 hPa 0,0 l/m N 0,0 km/h (0 Bft)
14.07.2006 02:00 17,6 C 94 % 1020 hPa 0,0 l/m N 0,0 km/h (0 Bft)
14.07.2006 03:00 17,1 C 96 % 1020 hPa 0,0 l/m N 0,0 km/h (0 Bft)
14.07.2006 04:00 16,3 C 98 % 1020 hPa 0,0 l/m N 0,0 km/h (0 Bft)
14.07.2006 05:00 16,0 C 99 % 1021 hPa 0,0 l/m N 0,0 km/h (0 Bft)
14.07.2006 06:00 15,8 C 100 % 1021 hPa 0,0 l/m N 0,0 km/h (0 Bft)
14.07.2006 07:00 16,9 C 100 % 1021 hPa 0,0 l/m N 0,0 km/h (0 Bft)
14.07.2006 08:00 18,8 C 96 % 1021 hPa 0,0 l/m N 0,0 km/h (0 Bft)
14.07.2006 09:00 21,1 C 84 % 1021 hPa 0,0 l/m NO 3,6 km/h (1 Bft)
14.07.2006 10:00 23,7 C 69 % 1021 hPa 0,0 l/m NO 12,4 km/h (3 Bft)
14.07.2006 11:00 26,1 C 60 % 1022 hPa 0,0 l/m N-NO 16,1 km/h (3 Bft)
14.07.2006 12:00 27,5 C 51 % 1022 hPa 0,0 l/m N-NO 19,3 km/h (3 Bft)
14.07.2006 13:00 27,1 C 48 % 1022 hPa 0,0 l/m N 19,7 km/h (3 Bft)
14.07.2006 14:00 22,3 C 69 % 1022 hPa 0,0 l/m NW 17,7 km/h (3 Bft)
14.07.2006 15:00 22,0 C 73 % 1022 hPa 0,0 l/m N-NW 18,6 km/h (3 Bft)
14.07.2006 16:00 21,8 C 75 % 1022 hPa 0,0 l/m NW 17,6 km/h (3 Bft)
14.07.2006 17:00 22,3 C 74 % 1022 hPa 0,0 l/m N-NW 14,3 km/h (3 Bft)
14.07.2006 18:00 25,5 C 63 % 1022 hPa 0,0 l/m N 15,7 km/h (3 Bft)
14.07.2006 19:00 24,7 C 67 % 1022 hPa 0,0 l/m N 17,4 km/h (3 Bft)
14.07.2006 20:00 21,4 C 88 % 1023 hPa 0,0 l/m W 6,5 km/h (2 Bft)
14.07.2006 21:00 20,1 C 92 % 1023 hPa 0,0 l/m N-NW 12,2 km/h (2 Bft)
14.07.2006 22:00 20,0 C 83 % 1023 hPa 0,0 l/m N 18,0 km/h (3 Bft)
14.07.2006 23:00 19,5 C 82 % 1024 hPa 0,0 l/m N 13,4 km/h (3 Bft)
15.07.2006 00:00 18,8 C 84 % 1024 hPa 0,0 l/m N 14,0 km/h (3 Bft)
15.07.2006 01:00 17,8 C 87 % 1024 hPa 0,0 l/m N 12,5 km/h (3 Bft)
15.07.2006 02:00 17,3 C 90 % 1024 hPa 0,0 l/m N 14,8 km/h (3 Bft)
15.07.2006 03:00 16,7 C 92 % 1024 hPa 0,0 l/m N 11,0 km/h (2 Bft)
15.07.2006 04:00 16,2 C 88 % 1024 hPa 0,0 l/m N 12,7 km/h (3 Bft)
15.07.2006 05:00 15,6 C 88 % 1024 hPa 0,0 l/m N-NW 9,9 km/h (2 Bft)
15.07.2006 06:00 14,8 C 90 % 1024 hPa 0,0 l/m N-NW 9,4 km/h (2 Bft)
15.07.2006 07:00 15,3 C 86 % 1024 hPa 0,0 l/m N 12,9 km/h (3 Bft)
15.07.2006 08:00 16,5 C 79 % 1024 hPa 0,0 l/m N 16,3 km/h (3 Bft)
15.07.2006 09:00 17,7 C 75 % 1025 hPa 0,0 l/m N-NO 17,3 km/h (3 Bft)
15.07.2006 10:00 19,6 C 71 % 1025 hPa 0,0 l/m N-NO 21,2 km/h (4 Bft)
15.07.2006 11:00 21,3 C 69 % 1025 hPa 0,0 l/m NO 20,1 km/h (4 Bft)
15.07.2006 12:00 23,1 C 62 % 1024 hPa 0,0 l/m O 25,1 km/h (4 Bft)
15.07.2006 13:00 24,6 C 54 % 1024 hPa 0,0 l/m N-NO 24,7 km/h (4 Bft)
15.07.2006 14:00 25,5 C 48 % 1024 hPa 0,0 l/m NO 22,1 km/h (4 Bft)
15.07.2006 15:00 26,3 C 44 % 1024 hPa 0,0 l/m O-NO 25,1 km/h (4 Bft)
15.07.2006 16:00 26,4 C 42 % 1024 hPa 0,0 l/m O-NO 23,5 km/h (4 Bft)
15.07.2006 17:00 26,5 C 41 % 1024 hPa 0,0 l/m O 23,2 km/h (4 Bft)
15.07.2006 18:00 26,1 C 40 % 1024 hPa 0,0 l/m O-NO 23,5 km/h (4 Bft)
15.07.2006 19:00 24,7 C 43 % 1023 hPa 0,0 l/m O-NO 21,4 km/h (4 Bft)
15.07.2006 20:00 23,1 C 46 % 1024 hPa 0,0 l/m NO 13,4 km/h (3 Bft)
15.07.2006 21:00 21,2 C 53 % 1024 hPa 0,0 l/m N-NO 8,6 km/h (2 Bft)
15.07.2006 22:00 19,7 C 55 % 1024 hPa 0,0 l/m N-NO 14,1 km/h (3 Bft)
15.07.2006 23:00 18,7 C 51 % 1024 hPa 0,0 l/m N-NO 13,4 km/h (3 Bft)
16.07.2006 00:00 17,9 C 50 % 1024 hPa 0,0 l/m N-NO 12,8 km/h (3 Bft)
16.07.2006 01:00 16,9 C 53 % 1024 hPa 0,0 l/m N-NO 11,4 km/h (2 Bft)
16.07.2006 02:00 15,8 C 58 % 1024 hPa 0,0 l/m N 7,2 km/h (2 Bft)
16.07.2006 03:00 14,6 C 66 % 1024 hPa 0,0 l/m N 9,0 km/h (2 Bft)
16.07.2006 04:00 13,6 C 72 % 1024 hPa 0,0 l/m N 9,6 km/h (2 Bft)
16.07.2006 05:00 13,2 C 76 % 1024 hPa 0,0 l/m N-NW 14,0 km/h (3 Bft)
16.07.2006 06:00 13,2 C 78 % 1024 hPa 0,0 l/m N 12,6 km/h (3 Bft)
16.07.2006 07:00 14,4 C 74 % 1025 hPa 0,0 l/m N 13,3 km/h (3 Bft)
16.07.2006 08:00 16,0 C 69 % 1025 hPa 0,0 l/m N-NO 18,7 km/h (3 Bft)
16.07.2006 09:00 18,8 C 56 % 1025 hPa 0,0 l/m N-NO 23,0 km/h (4 Bft)
16.07.2006 10:00 20,9 C 46 % 1024 hPa 0,0 l/m NO 26,6 km/h (4 Bft)
16.07.2006 11:00 22,6 C 42 % 1024 hPa 0,0 l/m O-NO 28,1 km/h (4 Bft)
16.07.2006 12:00 23,7 C 39 % 1024 hPa 0,0 l/m NO 28,0 km/h (4 Bft)
16.07.2006 13:00 24,7 C 36 % 1024 hPa 0,0 l/m NO 29,4 km/h (5 Bft)
16.07.2006 14:00 25,4 C 34 % 1024 hPa 0,0 l/m O-NO 29,2 km/h (5 Bft)
16.07.2006 15:00 26,2 C 33 % 1024 hPa 0,0 l/m O-NO 25,8 km/h (4 Bft)
16.07.2006 16:00 26,3 C 32 % 1024 hPa 0,0 l/m O-NO 26,8 km/h (4 Bft)
16.07.2006 17:00 26,3 C 32 % 1024 hPa 0,0 l/m O-NO 26,8 km/h (4 Bft)
16.07.2006 18:00 26,0 C 33 % 1023 hPa 0,0 l/m O-NO 24,1 km/h (4 Bft)
16.07.2006 19:00 24,7 C 34 % 1023 hPa 0,0 l/m O 19,8 km/h (3 Bft)
16.07.2006 20:00 23,0 C 37 % 1023 hPa 0,0 l/m O-NO 12,9 km/h (3 Bft)
16.07.2006 21:00 21,1 C 44 % 1023 hPa 0,0 l/m N-NO 8,1 km/h (2 Bft)
16.07.2006 22:00 19,3 C 51 % 1024 hPa 0,0 l/m N-NO 7,8 km/h (2 Bft)
16.07.2006 23:00 18,1 C 54 % 1024 hPa 0,0 l/m N-NO 6,6 km/h (2 Bft)
Min-Datum _ 16.07.06 13.07.06 13.07.06 - - 10.07.06
_ Min-Zeit 05:47 16:16 16:33 - - 00:00
Minimum _ 13,0 C 31 % 1018 hPa - - 0,0 km/h (0 Bft)
Max-Datum _ 11.07.06 10.07.06 10.07.06 13.07.06 - 16.07.06
_ Max-Zeit 17:43 06:26 05:48 19:36 - 13:45
Maximum _ 31,4 C 100 % 1025 hPa 1,0 l/m - 48,4 km/h
NO (6 Bft)
Durchschnitt _ 21,6 C 69 % 1023 hPa #1,0 l/m N 9,5 km/h (2 Bft)

Durchschnitt Minimum Temp.21,0 C
Durchschnitt Maximum Temp.22,3 C